Terminal Aerodrome Forecast
Issued by NWS Cleveland, OH

Home | Current Version | Previous Version | Graphics & Text | Print | Product List | Glossary On
Versions: 1 2 3 4 5 6 7 8 9 10 11 12 13 14 15
000
FTUS41 KCLE 221320 AAA
TAFTOL
TAF AMD
KTOL 221320Z 2213/2312 14004KT P6SM VCSH BKN015 OVC090
      TEMPO 2213/2215 5SM -SHRA OVC009
     FM221500 22010KT P6SM BKN020 OVC050
     FM221800 26010KT P6SM SCT040 BKN080
     FM231000 VRB03KT P6SM SCT007 BKN015=

USA.gov is the U.S. government's official web portal to all federal, state and local government web resources and services.